x

Southwest Pass, La (burl1) Weather Station

7:00pm - Wed 6th May 2015 All times are CDT. -5 hours from GMT.

  • Wind
    16mph, 17mph gusts
  • Air Temp 76°f
  • Sea Pressure 1016.8mb
  • Southwest Pass, La
  • Southwest Pass, La

More Historic Weather Station data

Upgrade to MSW Pro to gain access to the past 30 days of data for over 8000 Wavebouys and Weather Stations around the globe.

Join Pro

Comparision Forecast

View Surf forecast
   
Wed 05/06 7:00pm 16 17 mph 1016.8mb 76f
6:00pm 14 15 mph 1016.8mb 78f
5:00pm 9 10 mph 1017mb 78f
4:00pm 8
mph
1017.2mb 77f
3:00pm 7 8 mph 1017.5mb 77f
2:00pm 5 6 mph 1017.7mb 77f
1:00pm 6 7 mph 1018.2mb 76f
12:00pm 6
mph
1018.7mb 76f
11:00am 7 8 mph 1018.7mb 75f
10:00am 7 8 mph 1018.8mb 75f
9:00am 9
mph
1018.5mb 74f
8:00am 8
mph
1018.5mb 75f
7:00am 16
mph
1017.7mb 74f
6:00am 17 20 mph 1017.1mb 74f
5:00am 17 18 mph 1017mb 75f
4:00am 18 20 mph 1017.1mb 75f
3:00am 18 21 mph 1017.3mb 74f
2:00am 21 23 mph 1018mb 74f
1:00am 21 22 mph 1018.8mb 74f
12:00am 21
mph
1019.5mb 74f
Tue 05/05 11:00pm 21 22 mph 1019.8mb 74f
10:00pm 21 23 mph 1019.6mb 74f
9:00pm 23 24 mph 1019.4mb 74f
8:00pm 21 23 mph 1019mb 75f
7:00pm 24 25 mph 1018.7mb 75f
6:00pm 22 24 mph 1018.9mb 75f
5:00pm 22 23 mph 1019mb 75f
4:00pm 23 24 mph 1019.1mb 75f
3:00pm 21 22 mph 1020mb 76f
2:00pm 21 23 mph 1020.7mb 76f
1:00pm 21 23 mph 1021.1mb 76f
12:00pm 18 20 mph 1021.7mb 76f
11:00am 22 23 mph 1021.7mb 76f
10:00am 20 22 mph 1021.4mb 76f
9:00am 23 25 mph 1021mb 76f
8:00am 22 23 mph 1020.8mb 75f
7:00am 23 24 mph 1020.3mb 75f
6:00am 22 24 mph 1020.1mb 75f
5:00am 22 24 mph 1019.9mb 75f
4:00am 24 28 mph 1019.7mb 75f
3:00am 21 23 mph 1019.7mb 75f
2:00am 23 25 mph 1020.3mb 75f
1:00am 20 22 mph 1020.8mb 75f
12:00am 24 26 mph 1021.2mb 75f
Mon 05/04 11:00pm 24 25 mph 1021.1mb 76f
10:00pm 23 24 mph 1021.1mb 76f
9:00pm 23 26 mph 1020.8mb 76f
8:00pm 25 29 mph 1020.4mb 76f
7:00pm 29 31 mph 1020mb 76f
6:00pm 30 32 mph 1020.2mb 76f
5:00pm 25 29 mph 1020.7mb 76f
4:00pm 21 22 mph 1020.4mb 77f
3:00pm 20 22 mph 1021.2mb 77f
2:00pm 23 24 mph 1021.3mb 76f
1:00pm 21 22 mph 1021.5mb 76f
12:00pm 21 23 mph 1022.1mb 76f
11:00am 21 24 mph 1021.6mb 76f
10:00am 22 23 mph 1021.1mb 76f
9:00am 22 24 mph 1020.4mb 76f
8:00am 22 23 mph 1019.7mb 76f
7:00am 21 22 mph 1019.1mb 76f
6:00am 23 24 mph 1018.4mb 76f
5:00am 24 26 mph 1017.7mb 76f
4:00am 26 29 mph 1017.6mb 76f
3:00am 22 29 mph 1017.9mb 73f
2:00am 17 18 mph 1018.5mb 74f
1:00am 7 8 mph 1019mb 71f
12:00am 9 10 mph 1019.4mb 70f
Sun 05/03 11:00pm 9 10 mph 1019.8mb 71f
10:00pm 9 10 mph 1019.8mb 73f
9:00pm 13 14 mph 1019.7mb 73f
8:00pm 11 13 mph 1019.2mb 73f
7:00pm 9 10 mph 1019mb 73f
6:00pm 8 9 mph 1018.9mb 74f
5:00pm 9 10 mph 1019.1mb 74f
4:00pm 11
mph
1019.2mb 74f
3:00pm 11 13 mph 1019.6mb 74f
2:00pm 9 10 mph 1020.1mb 74f
1:00pm 8 9 mph 1020.5mb 73f
12:00pm 11 13 mph 1020.7mb 73f
11:00am 11 13 mph 1020.8mb 73f
10:00am 10 11 mph 1020.5mb 73f
9:00am 9 10 mph 1020.1mb 73f
8:00am 8 9 mph 1019.5mb 71f
7:00am 6 7 mph 1018.9mb 73f
6:00am 5
mph
1018.3mb 72f
5:00am 6
mph
1018mb 73f
4:00am 5 6 mph 1017.9mb 73f
3:00am 6
mph
1017.8mb 73f
2:00am 5 6 mph 1018.1mb 73f